createdAt,value
2019-03-05T00:00:30.172Z,7.60
2019-03-05T00:02:59.160Z,7.50
2019-03-05T00:05:28.641Z,7.60
2019-03-05T00:07:57.445Z,7.60
2019-03-05T00:10:26.407Z,7.50
2019-03-05T00:12:55.248Z,7.40
2019-03-05T00:15:26.667Z,7.50
2019-03-05T00:17:56.113Z,7.50
2019-03-05T00:20:25.135Z,7.50
2019-03-05T00:22:54.013Z,7.50
2019-03-05T00:25:23.248Z,7.50
2019-03-05T00:27:56.165Z,7.50
2019-03-05T00:30:43.528Z,7.50
2019-03-05T00:33:33.009Z,7.50
2019-03-05T00:36:16.048Z,7.40
2019-03-05T00:39:20.835Z,7.50
2019-03-05T00:42:29.266Z,7.50
2019-03-05T00:45:31.799Z,7.60
2019-03-05T00:48:41.446Z,7.60
2019-03-05T00:51:32.032Z,7.60
2019-03-05T00:54:34.570Z,7.60
2019-03-05T00:57:09.920Z,7.60
2019-03-05T00:59:55.465Z,7.60
2019-03-05T01:03:05.568Z,7.60
2019-03-05T01:05:43.926Z,7.50
2019-03-05T01:08:12.839Z,7.50
2019-03-05T01:10:41.753Z,7.50
2019-03-05T01:13:10.822Z,7.60
2019-03-05T01:15:39.625Z,7.60
2019-03-05T01:18:08.896Z,7.60
2019-03-05T01:20:37.900Z,7.50
2019-03-05T01:23:06.754Z,7.60
2019-03-05T01:25:35.694Z,7.60
2019-03-05T01:28:04.983Z,7.60
2019-03-05T01:31:07.120Z,7.60
2019-03-05T01:33:43.497Z,7.60
2019-03-05T01:36:16.408Z,7.60
2019-03-05T01:38:55.944Z,7.60
2019-03-05T01:41:24.768Z,7.70
2019-03-05T01:43:53.580Z,7.70
2019-03-05T01:46:22.841Z,7.70
2019-03-05T01:48:51.912Z,7.70
2019-03-05T01:51:20.705Z,7.60
2019-03-05T01:53:49.704Z,7.60
2019-03-05T01:56:18.508Z,7.50
2019-03-05T01:58:47.370Z,7.50
2019-03-05T02:01:16.538Z,7.40
2019-03-05T02:03:45.407Z,7.40
2019-03-05T02:06:14.409Z,7.30
2019-03-05T02:08:43.664Z,7.30
2019-03-05T02:11:12.960Z,7.20
2019-03-05T02:13:41.745Z,7.20
2019-03-05T02:16:10.753Z,7.20
2019-03-05T02:18:39.636Z,7.20
2019-03-05T02:21:08.708Z,7.20
2019-03-05T02:24:04.138Z,7.30
2019-03-05T02:27:10.775Z,7.30
2019-03-05T02:30:04.956Z,7.30
2019-03-05T02:33:15.494Z,7.40
2019-03-05T02:36:02.842Z,7.40
2019-03-05T02:38:57.986Z,7.40
2019-03-05T02:41:44.985Z,7.40
2019-03-05T02:44:36.918Z,7.40
2019-03-05T02:47:59.205Z,7.30
2019-03-05T02:50:44.564Z,7.30
2019-03-05T02:53:42.468Z,7.30
2019-03-05T02:56:45.051Z,7.30
2019-03-05T02:59:12.856Z,7.10
2019-03-05T03:02:03.571Z,7.10
2019-03-05T03:04:36.944Z,7.00
2019-03-05T03:07:05.842Z,7.00
2019-03-05T03:10:13.395Z,7.00
2019-03-05T03:12:42.834Z,7.00
2019-03-05T03:15:15.910Z,7.00
2019-03-05T03:17:45.037Z,7.00
2019-03-05T03:20:18.847Z,7.00
2019-03-05T03:22:47.845Z,7.00
2019-03-05T03:25:20.815Z,7.00
2019-03-05T03:27:49.828Z,7.00
2019-03-05T03:30:23.988Z,7.00
2019-03-05T03:32:52.822Z,6.90
2019-03-05T03:35:21.727Z,6.90
2019-03-05T03:37:51.665Z,6.90
2019-03-05T03:40:21.911Z,6.80
2019-03-05T03:42:50.941Z,6.90
2019-03-05T03:45:22.327Z,6.80
2019-03-05T03:47:51.252Z,6.70
2019-03-05T03:50:20.212Z,6.70
2019-03-05T03:52:49.297Z,6.70
2019-03-05T03:55:18.349Z,6.60
2019-03-05T03:57:47.703Z,6.50
2019-03-05T04:00:23.884Z,6.50
2019-03-05T04:02:53.462Z,6.50
2019-03-05T04:05:22.546Z,6.40
2019-03-05T04:07:51.774Z,6.40
2019-03-05T04:10:20.612Z,6.40
2019-03-05T04:12:49.745Z,6.40
2019-03-05T04:15:20.314Z,6.40
2019-03-05T04:17:49.274Z,6.40
2019-03-05T04:20:41.422Z,6.40
2019-03-05T04:23:10.204Z,6.40
2019-03-05T04:25:39.128Z,6.50
2019-03-05T04:28:08.621Z,6.50
2019-03-05T04:30:37.526Z,6.50
2019-03-05T04:33:06.390Z,6.50
2019-03-05T04:35:35.377Z,6.50
2019-03-05T04:38:04.277Z,6.50
2019-03-05T04:40:33.086Z,6.50
2019-03-05T04:43:02.053Z,6.50
2019-03-05T04:45:41.259Z,6.50
2019-03-05T04:48:10.437Z,6.50
2019-03-05T04:50:46.656Z,6.60
2019-03-05T04:53:15.768Z,6.60
2019-03-05T04:55:44.709Z,6.60
2019-03-05T04:58:13.603Z,6.60
2019-03-05T05:00:43.052Z,6.60
2019-03-05T05:03:11.881Z,6.60
2019-03-05T05:05:40.796Z,6.60
2019-03-05T05:08:09.961Z,6.60
2019-03-05T05:10:38.856Z,6.50
2019-03-05T05:13:07.674Z,6.50
2019-03-05T05:15:37.103Z,6.60
2019-03-05T05:18:06.357Z,6.50
2019-03-05T05:20:35.232Z,6.50
2019-03-05T05:23:15.197Z,6.50
2019-03-05T05:25:44.185Z,6.50
2019-03-05T05:28:13.637Z,6.50
2019-03-05T05:30:43.132Z,6.50
2019-03-05T05:33:12.405Z,6.40
2019-03-05T05:35:41.428Z,6.40
2019-03-05T05:38:10.538Z,6.40
2019-03-05T05:40:41.336Z,6.40
2019-03-05T05:43:25.068Z,6.40
2019-03-05T05:45:54.239Z,6.40
2019-03-05T05:48:23.180Z,6.40
2019-03-05T05:50:52.449Z,6.40
2019-03-05T05:53:21.408Z,6.40
2019-03-05T05:55:50.322Z,6.40
2019-03-05T05:58:19.529Z,6.50
2019-03-05T06:00:50.649Z,6.50
2019-03-05T06:03:19.882Z,6.40
2019-03-05T06:05:48.784Z,6.40
2019-03-05T06:08:17.645Z,6.40
2019-03-05T06:10:46.965Z,6.40
2019-03-05T06:13:15.847Z,6.40
2019-03-05T06:15:45.067Z,6.50
2019-03-05T06:18:14.052Z,6.50
2019-03-05T06:20:43.026Z,6.40
2019-03-05T06:23:11.982Z,6.40
2019-03-05T06:25:41.267Z,6.40
2019-03-05T06:28:10.184Z,6.30
2019-03-05T06:30:39.268Z,6.30
2019-03-05T06:33:08.288Z,6.20
2019-03-05T06:35:38.207Z,6.20
2019-03-05T06:38:07.176Z,6.20
2019-03-05T06:40:36.377Z,6.20
2019-03-05T06:43:05.300Z,6.10
2019-03-05T06:45:34.213Z,6.10
2019-03-05T06:48:22.512Z,6.10
2019-03-05T06:50:53.383Z,6.10
2019-03-05T06:53:22.208Z,6.10
2019-03-05T06:55:51.865Z,6.10
2019-03-05T06:58:20.632Z,6.10
2019-03-05T07:00:49.804Z,6.20
2019-03-05T07:03:19.021Z,6.10
2019-03-05T07:06:24.291Z,6.20
2019-03-05T07:09:10.299Z,6.20
2019-03-05T07:12:01.992Z,6.20
2019-03-05T07:14:40.837Z,6.20
2019-03-05T07:17:27.548Z,6.30
2019-03-05T07:20:20.892Z,6.30
2019-03-05T07:23:39.068Z,6.30
2019-03-05T07:26:08.078Z,6.30
2019-03-05T07:28:36.994Z,6.30
2019-03-05T07:31:05.962Z,6.40
2019-03-05T07:33:34.757Z,6.30
2019-03-05T07:36:03.708Z,6.30
2019-03-05T07:38:32.949Z,6.30
2019-03-05T07:41:01.781Z,6.30
2019-03-05T07:43:36.360Z,6.50
2019-03-05T07:46:05.181Z,6.50
2019-03-05T07:48:39.150Z,6.40
2019-03-05T07:51:08.053Z,6.50
2019-03-05T07:53:37.061Z,6.50
2019-03-05T07:56:06.076Z,6.50
2019-03-05T07:58:34.885Z,6.50
2019-03-05T08:01:03.931Z,6.50
2019-03-05T08:03:33.000Z,6.50
2019-03-05T08:06:01.789Z,6.60
2019-03-05T08:09:07.500Z,6.60
2019-03-05T08:11:36.362Z,6.70
2019-03-05T08:14:35.456Z,6.70
2019-03-05T08:17:04.405Z,6.80
2019-03-05T08:19:33.213Z,6.90
2019-03-05T08:22:02.708Z,6.90
2019-03-05T08:24:31.766Z,7.00
2019-03-05T08:27:00.561Z,7.00
2019-03-05T08:29:29.626Z,7.30
2019-03-05T08:31:58.437Z,7.50
2019-03-05T08:34:27.295Z,7.50
2019-03-05T08:36:56.456Z,7.50
2019-03-05T08:39:25.336Z,7.60
2019-03-05T08:41:54.504Z,7.50
2019-03-05T08:44:23.446Z,7.40
2019-03-05T08:46:52.356Z,7.40
2019-03-05T08:49:21.138Z,7.30
2019-03-05T08:51:50.212Z,7.30
2019-03-05T08:54:19.131Z,7.50
2019-03-05T08:56:48.041Z,7.40
2019-03-05T08:59:17.362Z,7.60
2019-03-05T09:01:46.185Z,7.80
2019-03-05T09:04:15.046Z,7.60
2019-03-05T09:06:44.201Z,7.80
2019-03-05T09:09:15.461Z,8.10
2019-03-05T09:11:44.346Z,7.80
2019-03-05T09:14:13.493Z,7.60
2019-03-05T09:16:42.596Z,7.70
2019-03-05T09:19:11.557Z,7.70
2019-03-05T09:21:40.517Z,7.80
2019-03-05T09:24:09.381Z,7.80
2019-03-05T09:26:38.180Z,7.70
2019-03-05T09:29:07.327Z,7.60
2019-03-05T09:31:36.153Z,7.70
2019-03-05T09:34:05.216Z,7.80
2019-03-05T09:36:34.208Z,7.80
2019-03-05T09:39:04.558Z,7.70
2019-03-05T09:41:33.441Z,7.90
2019-03-05T09:44:02.553Z,7.80
2019-03-05T09:46:31.421Z,7.80
2019-03-05T09:49:00.555Z,7.80
2019-03-05T09:51:29.672Z,7.80
2019-03-05T09:53:58.514Z,7.90
2019-03-05T09:56:29.165Z,8.00
2019-03-05T09:58:58.432Z,7.90
2019-03-05T10:01:27.404Z,7.80
2019-03-05T10:03:56.236Z,8.30
2019-03-05T10:06:25.349Z,9.00
2019-03-05T10:08:54.257Z,9.10
2019-03-05T10:11:23.710Z,9.20
2019-03-05T10:13:52.851Z,8.90
2019-03-05T10:16:21.678Z,9.00
2019-03-05T10:18:50.556Z,9.30
2019-03-05T10:21:19.572Z,9.30
2019-03-05T10:23:49.465Z,9.60
2019-03-05T10:26:18.799Z,9.50
2019-03-05T10:28:48.941Z,9.30
2019-03-05T10:31:18.862Z,9.20
2019-03-05T10:33:47.925Z,9.00
2019-03-05T10:36:16.872Z,8.90
2019-03-05T10:38:56.641Z,8.80
2019-03-05T10:41:16.592Z,9.30
2019-03-05T10:43:45.590Z,9.50
2019-03-05T10:46:14.549Z,9.40
2019-03-05T10:48:43.508Z,9.60
2019-03-05T10:51:12.785Z,10.20
2019-03-05T10:53:41.637Z,10.10
2019-03-05T10:56:10.676Z,9.80
2019-03-05T10:58:39.757Z,10.00
2019-03-05T11:01:09.921Z,9.80
2019-03-05T11:03:38.931Z,9.50
2019-03-05T11:06:08.565Z,9.70
2019-03-05T11:08:37.660Z,9.40
2019-03-05T11:11:13.411Z,9.50
2019-03-05T11:13:37.345Z,9.50
2019-03-05T11:16:06.633Z,9.70
2019-03-05T11:18:36.381Z,9.30
2019-03-05T11:21:06.515Z,9.10
2019-03-05T11:23:35.414Z,9.30
2019-03-05T11:26:04.378Z,9.90
2019-03-05T11:28:33.867Z,10.10
2019-03-05T11:31:02.837Z,10.50
2019-03-05T11:33:31.657Z,10.60
2019-03-05T11:36:00.673Z,10.70
2019-03-05T11:38:29.492Z,10.40
2019-03-05T11:40:58.585Z,10.10
2019-03-05T11:43:27.513Z,10.20
2019-03-05T11:45:56.333Z,10.10
2019-03-05T11:48:25.279Z,10.40
2019-03-05T11:50:54.239Z,10.10
2019-03-05T11:53:23.137Z,10.00
2019-03-05T11:55:51.973Z,10.30
2019-03-05T11:58:21.001Z,10.50
2019-03-05T12:01:05.143Z,10.70
2019-03-05T12:03:34.325Z,10.60
2019-03-05T12:06:03.365Z,10.50
2019-03-05T12:08:32.298Z,10.20
2019-03-05T12:11:01.341Z,10.20
2019-03-05T12:13:30.230Z,10.60
2019-03-05T12:16:00.948Z,10.50
2019-03-05T12:18:29.956Z,10.70
2019-03-05T12:20:58.797Z,11.30
2019-03-05T12:23:27.610Z,11.50
2019-03-05T12:25:56.548Z,11.90
2019-03-05T12:28:25.345Z,12.00
2019-03-05T12:30:54.432Z,11.40
2019-03-05T12:33:23.310Z,11.40
2019-03-05T12:35:52.304Z,11.90
2019-03-05T12:38:21.180Z,11.90
2019-03-05T12:40:50.325Z,12.00
2019-03-05T12:43:19.345Z,12.10
2019-03-05T12:45:48.144Z,12.40
2019-03-05T12:48:17.318Z,12.10
2019-03-05T12:50:46.239Z,11.30
2019-03-05T12:53:16.082Z,11.10
2019-03-05T12:55:45.573Z,10.80
2019-03-05T12:58:14.439Z,11.20
2019-03-05T13:00:43.393Z,11.20
2019-03-05T13:03:12.794Z,11.00
2019-03-05T13:05:41.628Z,10.80
2019-03-05T13:08:10.615Z,11.30
2019-03-05T13:10:39.717Z,11.60
2019-03-05T13:13:10.507Z,11.60
2019-03-05T13:15:39.572Z,11.90
2019-03-05T13:18:08.748Z,11.70
2019-03-05T13:20:37.822Z,11.70
2019-03-05T13:23:09.636Z,11.80
2019-03-05T13:25:56.757Z,11.70
2019-03-05T13:28:25.639Z,12.20
2019-03-05T13:30:54.566Z,12.20
2019-03-05T13:33:23.653Z,12.40
2019-03-05T13:35:52.742Z,12.50
2019-03-05T13:38:21.733Z,12.60
2019-03-05T13:40:50.773Z,12.10
2019-03-05T13:43:21.747Z,11.70
2019-03-05T13:45:50.451Z,11.30
2019-03-05T13:48:58.394Z,11.60
2019-03-05T13:51:56.077Z,11.50
2019-03-05T13:55:01.447Z,11.30
2019-03-05T13:58:04.285Z,11.50
2019-03-05T14:00:33.453Z,12.00
2019-03-05T14:03:11.959Z,11.80
2019-03-05T14:06:10.457Z,11.80
2019-03-05T14:09:17.349Z,12.40
2019-03-05T14:11:47.920Z,12.80
2019-03-05T14:14:22.865Z,12.50
2019-03-05T14:17:14.347Z,12.10
2019-03-05T14:19:43.333Z,12.00
2019-03-05T14:22:12.185Z,12.00
2019-03-05T14:24:41.190Z,11.80
2019-03-05T14:27:10.119Z,11.50
2019-03-05T14:29:39.032Z,11.50
2019-03-05T14:32:08.873Z,11.50
2019-03-05T14:34:37.786Z,11.60
2019-03-05T14:37:06.785Z,11.50
2019-03-05T14:39:36.172Z,11.40
2019-03-05T14:42:08.041Z,11.40
2019-03-05T14:44:40.047Z,11.40
2019-03-05T14:47:09.359Z,11.40
2019-03-05T14:49:38.281Z,11.30
2019-03-05T14:52:07.997Z,11.20
2019-03-05T14:54:37.048Z,11.30
2019-03-05T14:57:06.020Z,11.30
2019-03-05T14:59:35.078Z,11.40
2019-03-05T15:02:04.058Z,11.40
2019-03-05T15:04:33.018Z,11.40
2019-03-05T15:07:04.724Z,11.40
2019-03-05T15:09:33.397Z,11.40
2019-03-05T15:12:02.497Z,11.30
2019-03-05T15:14:31.538Z,11.30
2019-03-05T15:17:00.397Z,11.30
2019-03-05T15:19:29.554Z,11.20
2019-03-05T15:21:58.617Z,11.00
2019-03-05T15:24:27.521Z,11.00
2019-03-05T15:26:56.387Z,10.90
2019-03-05T15:29:25.599Z,10.90
2019-03-05T15:31:54.475Z,10.80
2019-03-05T15:34:23.489Z,10.80
2019-03-05T15:36:52.535Z,10.80
2019-03-05T15:39:21.565Z,10.70
2019-03-05T15:41:50.589Z,10.70
2019-03-05T15:44:19.678Z,10.70
2019-03-05T15:46:48.805Z,10.70
2019-03-05T15:49:17.776Z,10.60
2019-03-05T15:51:46.960Z,10.60
2019-03-05T15:54:15.817Z,10.60
2019-03-05T15:56:44.720Z,10.50
2019-03-05T15:59:13.793Z,10.50
2019-03-05T16:01:42.682Z,10.50
2019-03-05T16:04:11.791Z,10.40
2019-03-05T16:06:40.788Z,10.40
2019-03-05T16:09:16.722Z,10.40
2019-03-05T16:11:45.778Z,10.30
2019-03-05T16:14:14.597Z,10.30
2019-03-05T16:16:43.489Z,10.30
2019-03-05T16:19:16.592Z,10.20
2019-03-05T16:21:43.563Z,10.20
2019-03-05T16:24:12.607Z,10.20
2019-03-05T16:26:41.825Z,10.20
2019-03-05T16:29:12.404Z,10.10
2019-03-05T16:32:12.397Z,10.10
2019-03-05T16:34:51.677Z,10.00
2019-03-05T16:37:47.942Z,9.90
2019-03-05T16:40:23.105Z,9.80
2019-03-05T16:43:11.362Z,9.70
2019-03-05T16:45:51.785Z,9.70
2019-03-05T16:48:35.493Z,9.70
2019-03-05T16:51:23.858Z,9.60
2019-03-05T16:54:06.254Z,9.50
2019-03-05T16:56:54.709Z,9.50
2019-03-05T16:59:45.957Z,9.40
2019-03-05T17:02:30.107Z,9.40
2019-03-05T17:05:16.169Z,9.40
2019-03-05T17:08:06.994Z,9.30
2019-03-05T17:10:57.756Z,9.30
2019-03-05T17:13:26.697Z,9.30
2019-03-05T17:15:55.667Z,9.30
2019-03-05T17:18:24.671Z,9.20
2019-03-05T17:20:54.619Z,9.20
2019-03-05T17:23:23.585Z,9.10
2019-03-05T17:25:52.883Z,9.10
2019-03-05T17:28:21.843Z,9.00
2019-03-05T17:30:50.845Z,8.90
2019-03-05T17:33:20.095Z,8.90
2019-03-05T17:35:48.996Z,9.00
2019-03-05T17:38:18.016Z,8.90
2019-03-05T17:40:47.017Z,8.90
2019-03-05T17:43:15.894Z,8.80
2019-03-05T17:45:44.800Z,8.80
2019-03-05T17:48:13.948Z,8.70
2019-03-05T17:50:42.869Z,8.70
2019-03-05T17:53:11.828Z,8.70
2019-03-05T17:55:40.946Z,8.60
2019-03-05T17:58:09.829Z,8.50
2019-03-05T18:00:39.694Z,8.50
2019-03-05T18:03:08.792Z,8.40
2019-03-05T18:05:37.692Z,8.50
2019-03-05T18:08:06.974Z,8.40
2019-03-05T18:10:55.209Z,8.40
2019-03-05T18:13:24.188Z,8.40
2019-03-05T18:15:53.170Z,8.40
2019-03-05T18:18:22.301Z,8.40
2019-03-05T18:20:51.304Z,8.30
2019-03-05T18:23:20.202Z,8.30
2019-03-05T18:25:49.295Z,8.20
2019-03-05T18:28:18.174Z,8.20
2019-03-05T18:30:47.740Z,8.20
2019-03-05T18:33:16.790Z,8.20
2019-03-05T18:35:45.652Z,8.10
2019-03-05T18:38:14.903Z,8.10
2019-03-05T18:40:44.001Z,8.00
2019-03-05T18:43:12.907Z,8.00
2019-03-05T18:45:41.883Z,7.90
2019-03-05T18:48:11.092Z,7.80
2019-03-05T18:50:39.969Z,7.70
2019-03-05T18:53:08.985Z,7.70
2019-03-05T18:55:38.234Z,7.60
2019-03-05T18:58:07.281Z,7.60
2019-03-05T19:00:36.403Z,7.60
2019-03-05T19:03:05.765Z,7.50
2019-03-05T19:05:34.735Z,7.50
2019-03-05T19:08:03.718Z,7.40
2019-03-05T19:10:33.041Z,7.40
2019-03-05T19:13:02.150Z,7.30
2019-03-05T19:15:31.083Z,7.30
2019-03-05T19:18:00.360Z,7.30
2019-03-05T19:20:29.403Z,7.30
2019-03-05T19:22:59.876Z,7.30
2019-03-05T19:25:29.543Z,7.30
2019-03-05T19:27:58.617Z,7.20
2019-03-05T19:30:30.282Z,7.30
2019-03-05T19:32:59.230Z,7.30
2019-03-05T19:35:28.113Z,7.20
2019-03-05T19:37:57.226Z,7.20
2019-03-05T19:40:28.712Z,7.20
2019-03-05T19:42:58.524Z,7.20
2019-03-05T19:45:27.596Z,7.20
2019-03-05T19:47:56.567Z,7.20
2019-03-05T19:50:25.831Z,7.10
2019-03-05T19:52:54.854Z,7.10
2019-03-05T19:55:23.831Z,7.10
2019-03-05T19:57:54.645Z,7.00
2019-03-05T20:00:30.722Z,7.00
2019-03-05T20:02:59.920Z,7.00
2019-03-05T20:05:28.958Z,7.00
2019-03-05T20:07:57.880Z,6.90
2019-03-05T20:10:27.185Z,6.90
2019-03-05T20:12:56.084Z,6.90
2019-03-05T20:15:24.936Z,6.90
2019-03-05T20:17:58.959Z,6.90
2019-03-05T20:20:24.638Z,7.00
2019-03-05T20:22:53.624Z,7.00
2019-03-05T20:25:22.889Z,6.90
2019-03-05T20:27:51.948Z,7.00
2019-03-05T20:30:24.660Z,6.90
2019-03-05T20:32:53.680Z,6.90
2019-03-05T20:35:22.661Z,6.90
2019-03-05T20:37:51.861Z,6.90
2019-03-05T20:40:21.238Z,6.90
2019-03-05T20:42:50.228Z,6.90
2019-03-05T20:45:22.245Z,6.80
2019-03-05T20:47:51.204Z,6.90
2019-03-05T20:50:20.135Z,6.90
2019-03-05T20:52:50.930Z,6.90
2019-03-05T20:55:19.901Z,6.90
2019-03-05T20:57:48.705Z,7.00
2019-03-05T21:00:26.921Z,7.00
2019-03-05T21:02:57.996Z,7.00
2019-03-05T21:05:29.261Z,7.00
2019-03-05T21:07:58.149Z,7.00
2019-03-05T21:10:27.240Z,7.10
2019-03-05T21:12:56.417Z,7.20
2019-03-05T21:15:25.636Z,7.20
2019-03-05T21:17:54.580Z,7.20
2019-03-05T21:20:23.786Z,7.20
2019-03-05T21:22:52.788Z,7.20
2019-03-05T21:25:21.710Z,7.30
2019-03-05T21:27:51.117Z,7.30
2019-03-05T21:30:20.122Z,7.20
2019-03-05T21:32:49.051Z,7.20
2019-03-05T21:35:18.053Z,7.30
2019-03-05T21:37:46.972Z,7.30
2019-03-05T21:40:17.876Z,7.30
2019-03-05T21:42:47.096Z,7.30
2019-03-05T21:45:18.553Z,7.30
2019-03-05T21:47:47.492Z,7.30
2019-03-05T21:50:16.735Z,7.30
2019-03-05T21:52:45.703Z,7.30
2019-03-05T21:55:14.689Z,7.30
2019-03-05T21:57:43.823Z,7.20
2019-03-05T22:00:24.063Z,7.30
2019-03-05T22:02:53.301Z,7.30
2019-03-05T22:05:22.314Z,7.30
2019-03-05T22:07:51.219Z,7.30
2019-03-05T22:10:20.593Z,7.30
2019-03-05T22:12:49.864Z,7.30
2019-03-05T22:15:19.412Z,7.30
2019-03-05T22:17:48.781Z,7.30
2019-03-05T22:20:36.913Z,7.30
2019-03-05T22:23:06.038Z,7.30
2019-03-05T22:25:34.916Z,7.40
2019-03-05T22:28:03.745Z,7.50
2019-03-05T22:30:33.248Z,7.50
2019-03-05T22:33:02.065Z,7.50
2019-03-05T22:35:30.912Z,7.70
2019-03-05T22:37:59.965Z,7.70
2019-03-05T22:40:28.908Z,7.70
2019-03-05T22:42:58.053Z,7.70
2019-03-05T22:45:27.251Z,7.70
2019-03-05T22:47:56.181Z,7.70
2019-03-05T22:50:25.073Z,7.80
2019-03-05T22:52:54.109Z,7.90
2019-03-05T22:55:23.076Z,7.90
2019-03-05T22:57:52.059Z,7.90
2019-03-05T23:00:50.303Z,7.90
2019-03-05T23:03:20.473Z,7.90
2019-03-05T23:05:49.602Z,7.90
2019-03-05T23:08:20.505Z,7.90
2019-03-05T23:10:49.397Z,8.00
2019-03-05T23:13:18.903Z,8.00
2019-03-05T23:15:47.957Z,8.00
2019-03-05T23:18:17.456Z,8.00
2019-03-05T23:20:46.510Z,8.00
2019-03-05T23:23:15.679Z,8.00
2019-03-05T23:25:44.644Z,8.00
2019-03-05T23:28:13.611Z,8.00
2019-03-05T23:30:42.789Z,8.00
2019-03-05T23:33:11.673Z,8.00
2019-03-05T23:35:40.568Z,8.00
2019-03-05T23:38:09.593Z,8.00
2019-03-05T23:40:38.442Z,8.00
2019-03-05T23:43:07.565Z,8.00
2019-03-05T23:45:36.836Z,8.00
2019-03-05T23:48:05.914Z,8.00
2019-03-05T23:50:35.064Z,7.90
2019-03-05T23:53:04.064Z,8.00
2019-03-05T23:55:32.848Z,7.90
2019-03-05T23:58:01.661Z,7.90
